createdAt,value
2022-11-20T00:01:27.639Z,96514.53
2022-11-20T00:03:55.749Z,96508.56
2022-11-20T00:06:23.377Z,96509.28
2022-11-20T00:08:50.506Z,96499.69
2022-11-20T00:11:19.845Z,96501.22
2022-11-20T00:13:48.534Z,96502.66
2022-11-20T00:16:17.867Z,96506.78
2022-11-20T00:18:44.981Z,96507.31
2022-11-20T00:21:14.755Z,96499.50
2022-11-20T00:23:42.456Z,96505.06
2022-11-20T00:26:11.958Z,96492.69
2022-11-20T00:28:38.635Z,96497.63
2022-11-20T00:31:13.820Z,96494.81
2022-11-20T00:33:41.213Z,96498.13
2022-11-20T00:36:10.806Z,96490.34
2022-11-20T00:38:37.892Z,96487.81
2022-11-20T00:41:07.890Z,96489.06
2022-11-20T00:43:35.103Z,96492.75
2022-11-20T00:46:06.703Z,96496.88
2022-11-20T00:48:33.969Z,96499.16
2022-11-20T00:51:01.408Z,96497.16
2022-11-20T00:53:28.641Z,96499.75
2022-11-20T00:56:00.895Z,96501.25
2022-11-20T00:58:31.931Z,96496.88
2022-11-20T01:01:10.717Z,96490.84
2022-11-20T01:03:40.384Z,96497.59
2022-11-20T01:06:14.528Z,96497.84
2022-11-20T01:08:41.563Z,96493.44
2022-11-20T01:11:16.330Z,96493.28
2022-11-20T01:13:44.098Z,96492.53
2022-11-20T01:16:14.183Z,96493.38
2022-11-20T01:18:43.569Z,96484.16
2022-11-20T01:21:12.832Z,96492.44
2022-11-20T01:23:41.160Z,96490.84
2022-11-20T01:26:16.593Z,96481.41
2022-11-20T01:28:43.595Z,96486.75
2022-11-20T01:31:16.417Z,96489.28
2022-11-20T01:33:44.221Z,96474.91
2022-11-20T01:36:12.208Z,96490.69
2022-11-20T01:38:39.180Z,96485.22
2022-11-20T01:41:06.726Z,96485.00
2022-11-20T01:43:33.807Z,96479.94
2022-11-20T01:46:16.444Z,96476.28
2022-11-20T01:48:59.162Z,96466.19
2022-11-20T01:51:39.351Z,96481.47
2022-11-20T01:54:12.910Z,96475.66
2022-11-20T01:56:43.992Z,96466.66
2022-11-20T01:59:14.190Z,96474.59
2022-11-20T02:01:40.785Z,96471.72
2022-11-20T02:04:09.081Z,96472.22
2022-11-20T02:06:50.182Z,96486.41
2022-11-20T02:09:17.258Z,96486.91
2022-11-20T02:11:43.873Z,96494.03
2022-11-20T02:14:11.212Z,96492.25
2022-11-20T02:16:40.497Z,96479.25
2022-11-20T02:19:13.349Z,96486.91
2022-11-20T02:21:54.893Z,96487.66
2022-11-20T02:24:23.776Z,96484.94
2022-11-20T02:26:55.362Z,96470.03
2022-11-20T02:29:27.999Z,96473.38
2022-11-20T02:31:57.013Z,96468.97
2022-11-20T02:34:23.623Z,96474.19
2022-11-20T02:36:52.527Z,96459.41
2022-11-20T02:39:21.688Z,96469.94
2022-11-20T02:41:48.660Z,96464.66
2022-11-20T02:44:15.317Z,96475.91
2022-11-20T02:46:41.937Z,96467.41
2022-11-20T02:49:08.570Z,96473.31
2022-11-20T02:51:35.255Z,96468.91
2022-11-20T02:54:02.074Z,96471.50
2022-11-20T02:56:28.810Z,96475.78
2022-11-20T02:58:55.494Z,96471.28
2022-11-20T03:01:22.410Z,96464.56
2022-11-20T03:03:53.328Z,96468.00
2022-11-20T03:06:19.887Z,96469.19
2022-11-20T03:08:46.503Z,96461.84
2022-11-20T03:11:13.171Z,96458.50
2022-11-20T03:13:39.966Z,96451.59
2022-11-20T03:16:12.689Z,96452.50
2022-11-20T03:18:40.183Z,96447.88
2022-11-20T03:21:08.132Z,96445.75
2022-11-20T03:23:35.200Z,96450.81
2022-11-20T03:26:16.478Z,96448.22
2022-11-20T03:28:52.439Z,96444.56
2022-11-20T03:31:22.057Z,96441.81
2022-11-20T03:33:48.834Z,96439.13
2022-11-20T03:36:18.324Z,96448.69
2022-11-20T03:38:45.522Z,96444.41
2022-11-20T03:41:15.030Z,96438.03
2022-11-20T03:43:42.082Z,96434.50
2022-11-20T03:46:09.389Z,96441.41
2022-11-20T03:48:36.009Z,96430.91
2022-11-20T03:51:15.120Z,96433.59
2022-11-20T03:53:42.766Z,96441.25
2022-11-20T03:56:10.911Z,96434.59
2022-11-20T03:58:40.520Z,96442.47
2022-11-20T04:01:09.370Z,96444.44
2022-11-20T04:03:37.310Z,96439.44
2022-11-20T04:06:09.482Z,96438.34
2022-11-20T04:08:36.404Z,96437.97
2022-11-20T04:11:17.618Z,96445.56
2022-11-20T04:13:48.364Z,96439.91
2022-11-20T04:16:15.361Z,96443.00
2022-11-20T04:18:42.050Z,96442.25
2022-11-20T04:21:08.775Z,96441.47
2022-11-20T04:23:35.386Z,96431.75
2022-11-20T04:26:12.789Z,96438.72
2022-11-20T04:28:40.259Z,96430.78
2022-11-20T04:31:12.042Z,96431.56
2022-11-20T04:33:39.743Z,96428.59
2022-11-20T04:36:07.859Z,96426.06
2022-11-20T04:38:35.021Z,96427.34
2022-11-20T04:41:03.902Z,96427.94
2022-11-20T04:43:31.434Z,96424.44
2022-11-20T04:45:58.757Z,96426.00
2022-11-20T04:48:26.940Z,96423.16
2022-11-20T04:50:54.705Z,96427.16
2022-11-20T04:53:22.371Z,96425.53
2022-11-20T04:55:49.048Z,96423.91
2022-11-20T04:58:15.860Z,96431.59
2022-11-20T05:00:42.506Z,96430.59
2022-11-20T05:03:09.201Z,96428.22
2022-11-20T05:05:36.071Z,96431.72
2022-11-20T05:08:02.754Z,96420.53
2022-11-20T05:10:29.458Z,96427.44
2022-11-20T05:12:56.082Z,96425.66
2022-11-20T05:15:22.657Z,96423.78
2022-11-20T05:17:50.176Z,96423.78
2022-11-20T05:20:17.374Z,96421.94
2022-11-20T05:22:45.163Z,96427.06
2022-11-20T05:25:12.865Z,96425.31
2022-11-20T05:27:39.515Z,96425.75
2022-11-20T05:30:06.772Z,96419.84
2022-11-20T05:32:33.335Z,96423.06
2022-11-20T05:34:59.919Z,96423.22
2022-11-20T05:37:26.538Z,96421.09
2022-11-20T05:39:53.128Z,96422.56
2022-11-20T05:42:31.740Z,96421.66
2022-11-20T05:45:03.790Z,96423.63
2022-11-20T05:47:33.826Z,96417.81
2022-11-20T05:50:00.471Z,96419.34
2022-11-20T05:52:30.399Z,96418.34
2022-11-20T05:54:57.297Z,96420.88
2022-11-20T05:57:23.927Z,96424.25
2022-11-20T05:59:50.499Z,96421.56
2022-11-20T06:02:17.629Z,96424.38
2022-11-20T06:04:44.273Z,96418.56
2022-11-20T06:07:11.405Z,96420.41
2022-11-20T06:09:38.048Z,96420.94
2022-11-20T06:12:05.000Z,96430.44
2022-11-20T06:14:31.552Z,96429.22
2022-11-20T06:16:58.207Z,96428.25
2022-11-20T06:19:24.811Z,96424.56
2022-11-20T06:21:51.661Z,96426.84
2022-11-20T06:24:18.809Z,96431.97
2022-11-20T06:26:45.724Z,96426.50
2022-11-20T06:29:12.337Z,96423.00
2022-11-20T06:31:39.092Z,96423.34
2022-11-20T06:34:07.200Z,96426.78
2022-11-20T06:36:34.382Z,96417.97
2022-11-20T06:39:01.741Z,96423.94
2022-11-20T06:41:29.084Z,96427.38
2022-11-20T06:43:56.039Z,96422.88
2022-11-20T06:46:22.688Z,96419.50
2022-11-20T06:48:50.434Z,96429.22
2022-11-20T06:51:17.773Z,96429.09
2022-11-20T06:53:44.489Z,96428.16
2022-11-20T06:56:11.132Z,96437.56
2022-11-20T06:58:38.004Z,96439.81
2022-11-20T07:01:10.987Z,96444.56
2022-11-20T07:03:37.881Z,96440.19
2022-11-20T07:06:05.654Z,96443.72
2022-11-20T07:08:33.014Z,96437.59
2022-11-20T07:11:01.278Z,96444.00
2022-11-20T07:13:31.262Z,96441.97
2022-11-20T07:16:07.108Z,96442.50
2022-11-20T07:18:34.336Z,96444.03
2022-11-20T07:21:04.996Z,96447.38
2022-11-20T07:23:31.684Z,96455.44
2022-11-20T07:25:58.588Z,96449.16
2022-11-20T07:28:25.378Z,96454.91
2022-11-20T07:30:53.701Z,96466.94
2022-11-20T07:33:21.024Z,96473.75
2022-11-20T07:35:47.782Z,96464.88
2022-11-20T07:38:14.458Z,96461.22
2022-11-20T07:40:41.167Z,96470.25
2022-11-20T07:43:07.909Z,96467.72
2022-11-20T07:45:34.606Z,96472.09
2022-11-20T07:48:01.236Z,96480.03
2022-11-20T07:50:27.861Z,96470.53
2022-11-20T07:53:02.028Z,96483.47
2022-11-20T07:55:28.628Z,96477.22
2022-11-20T07:57:56.984Z,96486.09
2022-11-20T08:00:24.170Z,96481.03
2022-11-20T08:02:51.108Z,96482.72
2022-11-20T08:05:17.861Z,96485.41
2022-11-20T08:07:44.943Z,96494.00
2022-11-20T08:10:14.739Z,96492.47
2022-11-20T08:13:07.373Z,96496.53
2022-11-20T08:15:34.428Z,96495.59
2022-11-20T08:18:29.975Z,96497.06
2022-11-20T08:20:52.463Z,96493.44
2022-11-20T08:23:19.042Z,96497.97
2022-11-20T08:25:50.934Z,96502.56
2022-11-20T08:28:21.304Z,96504.97
2022-11-20T08:30:49.100Z,96510.47
2022-11-20T08:33:15.768Z,96504.78
2022-11-20T08:35:43.543Z,96498.19
2022-11-20T08:38:10.540Z,96500.88
2022-11-20T08:40:37.139Z,96500.59
2022-11-20T08:43:03.964Z,96505.50
2022-11-20T08:45:34.269Z,96504.41
2022-11-20T08:48:03.256Z,96505.03
2022-11-20T08:50:32.547Z,96500.41
2022-11-20T08:53:06.587Z,96494.13
2022-11-20T08:55:33.503Z,96500.31
2022-11-20T08:58:04.745Z,96501.69
2022-11-20T09:00:31.390Z,96503.13
2022-11-20T09:02:59.548Z,96505.66
2022-11-20T09:05:26.182Z,96502.13
2022-11-20T09:07:52.754Z,96499.44
2022-11-20T09:10:24.444Z,96505.88
2022-11-20T09:12:52.759Z,96512.00
2022-11-20T09:15:20.124Z,96511.50
2022-11-20T09:17:56.909Z,96509.81
2022-11-20T09:20:23.578Z,96508.41
2022-11-20T09:22:50.243Z,96513.28
2022-11-20T09:25:16.943Z,96508.00
2022-11-20T09:27:45.080Z,96507.28
2022-11-20T09:30:12.726Z,96515.03
2022-11-20T09:32:43.286Z,96507.38
2022-11-20T09:35:11.465Z,96508.47
2022-11-20T09:37:38.546Z,96504.09
2022-11-20T09:40:05.669Z,96507.69
2022-11-20T09:42:48.739Z,96505.50
2022-11-20T09:45:38.152Z,96505.19
2022-11-20T09:48:17.540Z,96497.13
2022-11-20T09:50:44.167Z,96488.19
2022-11-20T09:53:25.948Z,96493.22
2022-11-20T09:55:52.592Z,96491.91
2022-11-20T09:58:30.653Z,96483.53
2022-11-20T10:01:05.948Z,96484.69
2022-11-20T10:03:46.905Z,96479.81
2022-11-20T10:06:18.227Z,96500.38
2022-11-20T10:09:06.802Z,96491.94
2022-11-20T10:11:48.612Z,96489.22
2022-11-20T10:14:27.333Z,96480.13
2022-11-20T10:17:14.331Z,96480.00
2022-11-20T10:20:03.535Z,96481.31
2022-11-20T10:22:46.211Z,96474.56
2022-11-20T10:25:19.891Z,96477.50
2022-11-20T10:28:16.901Z,96466.78
2022-11-20T10:30:46.698Z,96459.19
2022-11-20T10:34:05.142Z,96455.91
2022-11-20T10:36:39.750Z,96454.63
2022-11-20T10:39:18.515Z,96453.88
2022-11-20T10:41:50.209Z,96455.09
2022-11-20T10:44:40.460Z,96457.41
2022-11-20T10:47:15.179Z,96448.59
2022-11-20T10:49:43.359Z,96452.06
2022-11-20T10:52:22.143Z,96448.13
2022-11-20T10:55:05.940Z,96438.06
2022-11-20T10:58:03.509Z,96434.53
2022-11-20T11:00:33.219Z,96430.72
2022-11-20T11:03:04.113Z,96416.25
2022-11-20T11:05:37.148Z,96427.44
2022-11-20T11:08:13.046Z,96425.09
2022-11-20T11:10:52.499Z,96421.28
2022-11-20T11:13:26.730Z,96425.09
2022-11-20T11:15:54.161Z,96414.63
2022-11-20T11:18:32.727Z,96416.03
2022-11-20T11:21:05.735Z,96411.47
2022-11-20T11:23:33.779Z,96407.28
2022-11-20T11:26:02.322Z,96399.69
2022-11-20T11:28:29.868Z,96398.91
2022-11-20T11:30:56.974Z,96401.28
2022-11-20T11:33:29.834Z,96401.84
2022-11-20T11:35:59.956Z,96391.84
2022-11-20T11:38:36.569Z,96397.66
2022-11-20T11:41:06.299Z,96395.09
2022-11-20T11:43:55.829Z,96385.75
2022-11-20T11:46:29.921Z,96380.06
2022-11-20T11:49:02.670Z,96380.25
2022-11-20T11:51:40.086Z,96374.81
2022-11-20T11:54:18.906Z,96378.81
2022-11-20T11:56:46.016Z,96381.44
2022-11-20T11:59:28.385Z,96371.16
2022-11-20T12:02:09.308Z,96364.66
2022-11-20T12:04:47.279Z,96366.09
2022-11-20T12:07:45.500Z,96362.63
2022-11-20T12:10:48.515Z,96361.06
2022-11-20T12:13:33.654Z,96363.09
2022-11-20T12:16:01.752Z,96353.31
2022-11-20T12:18:29.524Z,96355.72
2022-11-20T12:21:26.895Z,96350.47
2022-11-20T12:24:32.946Z,96351.97
2022-11-20T12:27:17.908Z,96342.88
2022-11-20T12:29:58.079Z,96348.16
2022-11-20T12:32:27.271Z,96353.63
2022-11-20T12:35:14.580Z,96345.75
2022-11-20T12:37:41.777Z,96339.47
2022-11-20T12:40:33.476Z,96325.44
2022-11-20T12:43:37.636Z,96328.72
2022-11-20T12:46:13.869Z,96324.63
2022-11-20T12:49:08.586Z,96324.09
2022-11-20T12:51:53.090Z,96316.78
2022-11-20T12:54:47.863Z,96315.00
2022-11-20T12:57:33.606Z,96316.56
2022-11-20T13:00:21.049Z,96319.38
2022-11-20T13:03:00.492Z,96317.50
2022-11-20T13:05:40.267Z,96313.31
2022-11-20T13:08:18.498Z,96312.66
2022-11-20T13:11:37.893Z,96311.44
2022-11-20T13:14:08.935Z,96295.34
2022-11-20T13:16:47.377Z,96301.97
2022-11-20T13:19:27.874Z,96300.59
2022-11-20T13:21:54.498Z,96298.94
2022-11-20T13:24:21.327Z,96295.88
2022-11-20T13:26:48.417Z,96288.53
2022-11-20T13:29:19.849Z,96286.34
2022-11-20T13:31:48.975Z,96288.25
2022-11-20T13:34:26.873Z,96285.19
2022-11-20T13:36:56.689Z,96278.56
2022-11-20T13:39:32.076Z,96273.44
2022-11-20T13:42:01.713Z,96277.44
2022-11-20T13:44:38.801Z,96273.34
2022-11-20T13:47:21.692Z,96270.38
2022-11-20T13:49:49.415Z,96263.69
2022-11-20T13:52:47.792Z,96265.97
2022-11-20T13:55:44.223Z,96260.22
2022-11-20T13:58:33.461Z,96265.47
2022-11-20T14:01:12.264Z,96258.44
2022-11-20T14:06:28.770Z,96252.88
2022-11-20T14:08:56.551Z,96249.72
2022-11-20T14:11:31.799Z,96249.72
2022-11-20T14:14:06.579Z,96251.59
2022-11-20T14:16:36.157Z,96245.09
2022-11-20T14:19:21.152Z,96236.22
2022-11-20T14:22:18.679Z,96230.22
2022-11-20T14:24:45.883Z,96238.28
2022-11-20T14:27:21.740Z,96235.88
2022-11-20T14:29:50.423Z,96237.84
2022-11-20T14:32:23.235Z,96232.84
2022-11-20T14:34:51.726Z,96229.47
2022-11-20T14:37:22.659Z,96222.56
2022-11-20T14:39:54.696Z,96218.91
2022-11-20T14:42:28.068Z,96215.13
2022-11-20T14:44:59.374Z,96222.41
2022-11-20T14:47:30.323Z,96213.09
2022-11-20T14:49:58.815Z,96215.19
2022-11-20T14:52:28.035Z,96211.09
2022-11-20T14:54:57.236Z,96210.16
2022-11-20T14:57:34.964Z,96210.53
2022-11-20T15:00:13.627Z,96210.66
2022-11-20T15:02:48.565Z,96209.25
2022-11-20T15:05:16.631Z,96208.53
2022-11-20T15:07:49.132Z,96210.66
2022-11-20T15:10:29.151Z,96208.56
2022-11-20T15:13:12.424Z,96201.00
2022-11-20T15:15:49.949Z,96207.28
2022-11-20T15:18:22.047Z,96215.31
2022-11-20T15:20:49.819Z,96209.13
2022-11-20T15:23:21.423Z,96205.78
2022-11-20T15:25:49.634Z,96200.03
2022-11-20T15:28:28.000Z,96197.22
2022-11-20T15:30:54.768Z,96204.59
2022-11-20T15:33:21.330Z,96199.38
2022-11-20T15:35:48.002Z,96189.94
2022-11-20T15:38:14.663Z,96179.59
2022-11-20T15:40:41.955Z,96184.94
2022-11-20T15:43:13.307Z,96179.03
2022-11-20T15:45:47.520Z,96178.09
2022-11-20T15:48:23.215Z,96175.06
2022-11-20T15:50:52.408Z,96169.75
2022-11-20T15:53:19.203Z,96165.38
2022-11-20T15:55:45.929Z,96159.09
2022-11-20T15:58:12.499Z,96154.44
2022-11-20T16:00:39.386Z,96152.88
2022-11-20T16:03:06.158Z,96150.81
2022-11-20T16:05:32.858Z,96137.09
2022-11-20T16:07:59.495Z,96143.25
2022-11-20T16:10:26.165Z,96136.25
2022-11-20T16:13:11.178Z,96139.66
2022-11-20T16:15:46.848Z,96128.06
2022-11-20T16:18:16.439Z,96128.16
2022-11-20T16:20:43.528Z,96119.84
2022-11-20T16:23:10.162Z,96120.78
2022-11-20T16:25:36.781Z,96112.31
2022-11-20T16:28:03.578Z,96114.38
2022-11-20T16:30:30.261Z,96104.59
2022-11-20T16:32:56.885Z,96099.34
2022-11-20T16:35:23.518Z,96098.41
2022-11-20T16:37:50.121Z,96088.69
2022-11-20T16:40:16.918Z,96080.81
2022-11-20T16:42:43.532Z,96080.03
2022-11-20T16:45:10.693Z,96075.47
2022-11-20T16:47:37.413Z,96071.84
2022-11-20T16:50:05.772Z,96072.16
2022-11-20T16:52:32.642Z,96067.47
2022-11-20T16:54:59.418Z,96055.66
2022-11-20T16:57:28.518Z,96056.19
2022-11-20T16:59:58.980Z,96051.06
2022-11-20T17:02:28.617Z,96052.44
2022-11-20T17:04:55.367Z,96044.72
2022-11-20T17:07:22.048Z,96048.06
2022-11-20T17:09:48.739Z,96041.53
2022-11-20T17:12:15.390Z,96043.53
2022-11-20T17:14:42.020Z,96046.88
2022-11-20T17:17:08.661Z,96037.63
2022-11-20T17:19:41.751Z,96032.25
2022-11-20T17:22:08.346Z,96034.00
2022-11-20T17:24:35.107Z,96032.41
2022-11-20T17:27:01.917Z,96039.13
2022-11-20T17:29:28.621Z,96030.47
2022-11-20T17:31:55.455Z,96027.94
2022-11-20T17:34:36.956Z,96026.47
2022-11-20T17:37:05.496Z,96034.56
2022-11-20T17:39:32.883Z,96027.28
2022-11-20T17:42:18.397Z,96027.19
2022-11-20T17:44:47.178Z,96020.66
2022-11-20T17:47:16.953Z,96020.19
2022-11-20T17:49:44.413Z,96018.75
2022-11-20T17:52:13.257Z,96022.16
2022-11-20T17:54:44.114Z,96011.75
2022-11-20T17:57:33.176Z,96015.31
2022-11-20T18:00:01.008Z,96013.53
2022-11-20T18:02:29.516Z,96007.38
2022-11-20T18:04:56.261Z,96008.97
2022-11-20T18:07:22.976Z,96010.19
2022-11-20T18:09:50.346Z,96018.03
2022-11-20T18:12:16.946Z,96010.41
2022-11-20T18:14:43.654Z,96001.81
2022-11-20T18:17:14.940Z,95989.78
2022-11-20T18:19:55.533Z,95990.81
2022-11-20T18:22:27.615Z,95996.31
2022-11-20T18:24:54.443Z,95990.81
2022-11-20T18:27:21.545Z,95977.97
2022-11-20T18:29:51.621Z,95991.09
2022-11-20T18:32:20.087Z,95983.47
2022-11-20T18:34:46.703Z,95988.81
2022-11-20T18:37:15.381Z,95980.03
2022-11-20T18:39:42.483Z,95977.41
2022-11-20T18:42:31.659Z,95980.47
2022-11-20T18:45:00.191Z,95979.81
2022-11-20T18:47:31.918Z,95976.47
2022-11-20T18:50:00.992Z,95976.28
2022-11-20T18:52:35.880Z,95977.09
2022-11-20T18:55:04.057Z,95969.81
2022-11-20T18:57:31.498Z,95974.94
2022-11-20T19:00:06.790Z,95964.22
2022-11-20T19:02:41.174Z,95969.97
2022-11-20T19:05:14.369Z,95962.22
2022-11-20T19:07:41.539Z,95954.28
2022-11-20T19:10:08.354Z,95951.88
2022-11-20T19:12:35.112Z,95946.88
2022-11-20T19:15:01.720Z,95949.38
2022-11-20T19:17:28.394Z,95953.34
2022-11-20T19:19:55.485Z,95949.06
2022-11-20T19:22:22.476Z,95947.28
2022-11-20T19:24:49.488Z,95955.38
2022-11-20T19:27:16.126Z,95956.97
2022-11-20T19:29:42.722Z,95946.28
2022-11-20T19:32:09.340Z,95942.94
2022-11-20T19:34:35.923Z,95934.38
2022-11-20T19:37:02.563Z,95929.56
2022-11-20T19:39:29.256Z,95939.59
2022-11-20T19:41:55.879Z,95938.34
2022-11-20T19:44:22.518Z,95946.06
2022-11-20T19:46:50.876Z,95941.88
2022-11-20T19:49:17.992Z,95946.28
2022-11-20T19:51:50.299Z,95942.72
2022-11-20T19:54:17.452Z,95946.28
2022-11-20T19:56:45.486Z,95937.78
2022-11-20T19:59:13.068Z,95938.69
2022-11-20T20:01:39.888Z,95929.44
2022-11-20T20:04:07.090Z,95924.03
2022-11-20T20:06:36.177Z,95925.75
2022-11-20T20:09:09.062Z,95926.84
2022-11-20T20:11:36.637Z,95945.94
2022-11-20T20:14:08.764Z,95950.81
2022-11-20T20:16:35.804Z,95951.44
2022-11-20T20:19:04.890Z,95943.69
2022-11-20T20:21:35.122Z,95940.72
2022-11-20T20:24:02.772Z,95935.78
2022-11-20T20:26:31.502Z,95940.25
2022-11-20T20:28:58.945Z,95947.34
2022-11-20T20:31:27.779Z,95943.50
2022-11-20T20:33:54.701Z,95944.78
2022-11-20T20:36:22.800Z,95952.88
2022-11-20T20:38:55.902Z,95945.69
2022-11-20T20:41:24.367Z,95949.78
2022-11-20T20:44:10.211Z,95950.44
2022-11-20T20:46:37.087Z,95960.56
2022-11-20T20:49:03.842Z,95948.78
2022-11-20T20:51:30.661Z,95967.91
2022-11-20T20:53:57.334Z,95958.00
2022-11-20T20:56:23.902Z,95947.44
2022-11-20T20:58:50.582Z,95960.69
2022-11-20T21:01:19.330Z,95964.69
2022-11-20T21:03:46.132Z,95953.00
2022-11-20T21:06:13.563Z,95981.09
2022-11-20T21:08:41.662Z,95989.78
2022-11-20T21:11:15.038Z,95984.41
2022-11-20T21:13:43.443Z,95968.75
2022-11-20T21:16:11.935Z,95944.69
2022-11-20T21:18:38.550Z,95955.09
2022-11-20T21:21:25.658Z,95963.19
2022-11-20T21:23:53.625Z,95962.66
2022-11-20T21:26:21.239Z,95970.78
2022-11-20T21:28:48.181Z,95974.69
2022-11-20T21:31:24.967Z,95970.03
2022-11-20T21:33:53.717Z,95969.41
2022-11-20T21:36:22.714Z,95963.53
2022-11-20T21:38:52.048Z,95969.78
2022-11-20T21:41:19.118Z,95967.44
2022-11-20T21:43:51.545Z,95964.00
2022-11-20T21:46:25.718Z,95975.34
2022-11-20T21:48:52.998Z,95972.91
2022-11-20T21:51:21.694Z,95964.19
2022-11-20T21:53:49.663Z,95968.53
2022-11-20T21:56:20.519Z,95958.09
2022-11-20T21:58:48.054Z,95957.09
2022-11-20T22:01:18.825Z,95960.44
2022-11-20T22:03:54.175Z,95962.31
2022-11-20T22:06:21.371Z,95966.28
2022-11-20T22:08:48.989Z,95972.84
2022-11-20T22:11:18.332Z,95971.16
2022-11-20T22:14:03.874Z,95974.91
2022-11-20T22:16:30.799Z,95969.69
2022-11-20T22:18:58.671Z,95978.81
2022-11-20T22:21:27.936Z,95971.09
2022-11-20T22:23:55.009Z,95975.75
2022-11-20T22:26:24.058Z,95972.59
2022-11-20T22:28:52.378Z,95972.69
2022-11-20T22:31:20.198Z,95982.94
2022-11-20T22:33:47.011Z,95981.78
2022-11-20T22:36:19.484Z,95989.81
2022-11-20T22:38:46.265Z,95994.50
2022-11-20T22:41:14.831Z,95993.56
2022-11-20T22:43:42.778Z,95982.66
2022-11-20T22:46:12.240Z,95993.00
2022-11-20T22:48:41.296Z,95993.94
2022-11-20T22:51:11.382Z,95996.91
2022-11-20T22:53:37.978Z,96004.91
2022-11-20T22:56:08.858Z,95998.78
2022-11-20T22:58:37.202Z,95993.56
2022-11-20T23:01:13.658Z,95997.72
2022-11-20T23:03:42.369Z,96008.94
2022-11-20T23:06:09.686Z,96001.94
2022-11-20T23:08:37.192Z,95995.69
2022-11-20T23:11:06.800Z,95998.41
2022-11-20T23:13:34.488Z,95999.88
2022-11-20T23:16:05.371Z,96002.13
2022-11-20T23:18:32.479Z,95996.72
2022-11-20T23:21:10.250Z,95985.06
2022-11-20T23:23:37.344Z,95989.44
2022-11-20T23:26:06.976Z,95994.97
2022-11-20T23:28:34.707Z,95997.56
2022-11-20T23:31:02.940Z,95989.38
2022-11-20T23:33:30.414Z,95988.88
2022-11-20T23:35:57.527Z,95989.09
2022-11-20T23:38:24.347Z,95980.44
2022-11-20T23:40:52.290Z,95979.50
2022-11-20T23:43:21.474Z,95978.19
2022-11-20T23:45:53.409Z,95980.03
2022-11-20T23:48:21.981Z,95977.31
2022-11-20T23:50:49.052Z,95981.81
2022-11-20T23:53:16.687Z,95994.03
2022-11-20T23:55:47.151Z,95984.69
2022-11-20T23:58:14.438Z,95993.09
